createdAt,value
2022-10-04T00:02:26.507Z,98416.28
2022-10-04T00:04:58.867Z,98407.06
2022-10-04T00:07:29.917Z,98409.53
2022-10-04T00:10:00.583Z,98405.22
2022-10-04T00:12:31.911Z,98412.75
2022-10-04T00:15:03.052Z,98411.41
2022-10-04T00:17:32.171Z,98408.16
2022-10-04T00:19:59.462Z,98408.97
2022-10-04T00:22:28.903Z,98409.53
2022-10-04T00:25:20.728Z,98417.34
2022-10-04T00:28:24.475Z,98415.19
2022-10-04T00:31:15.923Z,98414.66
2022-10-04T00:33:44.551Z,98413.56
2022-10-04T00:36:31.958Z,98411.63
2022-10-04T00:39:13.864Z,98395.16
2022-10-04T00:41:57.208Z,98404.34
2022-10-04T00:44:31.122Z,98396.78
2022-10-04T00:47:01.772Z,98400.84
2022-10-04T00:49:35.744Z,98390.56
2022-10-04T00:52:09.234Z,98394.91
2022-10-04T00:54:41.221Z,98402.16
2022-10-04T00:57:12.376Z,98404.06
2022-10-04T00:59:42.484Z,98409.97
2022-10-04T01:02:18.573Z,98407.84
2022-10-04T01:04:51.259Z,98408.91
2022-10-04T01:07:25.820Z,98402.69
2022-10-04T01:09:56.412Z,98401.88
2022-10-04T01:12:34.710Z,98402.16
2022-10-04T01:15:07.540Z,98401.88
2022-10-04T01:17:36.138Z,98398.94
2022-10-04T01:20:04.503Z,98397.03
2022-10-04T01:22:40.231Z,98390.56
2022-10-04T01:25:07.594Z,98390.28
2022-10-04T01:27:40.323Z,98383.53
2022-10-04T01:30:10.245Z,98381.09
2022-10-04T01:32:38.974Z,98374.63
2022-10-04T01:35:08.385Z,98374.91
2022-10-04T01:37:37.169Z,98384.09
2022-10-04T01:40:05.268Z,98380.56
2022-10-04T01:42:37.932Z,98385.97
2022-10-04T01:45:13.263Z,98376.50
2022-10-04T01:47:43.646Z,98380.81
2022-10-04T01:50:19.230Z,98376.22
2022-10-04T01:52:51.539Z,98380.00
2022-10-04T01:55:23.316Z,98375.44
2022-10-04T01:57:54.479Z,98372.19
2022-10-04T02:00:22.499Z,98370.06
2022-10-04T02:02:55.440Z,98372.47
2022-10-04T02:05:29.750Z,98363.56
2022-10-04T02:08:04.216Z,98359.25
2022-10-04T02:10:34.328Z,98363.56
2022-10-04T02:13:02.604Z,98368.16
2022-10-04T02:15:30.742Z,98366.78
2022-10-04T02:17:59.250Z,98369.47
2022-10-04T02:20:27.092Z,98371.38
2022-10-04T02:22:59.553Z,98374.88
2022-10-04T02:25:27.123Z,98373.00
2022-10-04T02:27:54.955Z,98372.47
2022-10-04T02:30:23.041Z,98372.72
2022-10-04T02:32:54.079Z,98359.75
2022-10-04T02:35:21.568Z,98352.50
2022-10-04T02:37:54.281Z,98346.53
2022-10-04T02:40:29.234Z,98353.56
2022-10-04T02:43:00.585Z,98351.66
2022-10-04T02:45:37.726Z,98345.75
2022-10-04T02:48:26.583Z,98360.03
2022-10-04T02:50:56.936Z,98351.94
2022-10-04T02:53:29.976Z,98362.47
2022-10-04T02:55:58.909Z,98366.78
2022-10-04T02:58:27.347Z,98362.75
2022-10-04T03:00:57.576Z,98369.78
2022-10-04T03:03:27.025Z,98365.16
2022-10-04T03:05:59.574Z,98370.28
2022-10-04T03:08:29.002Z,98365.16
2022-10-04T03:10:59.075Z,98371.09
2022-10-04T03:13:27.189Z,98369.22
2022-10-04T03:15:54.837Z,98365.72
2022-10-04T03:18:23.659Z,98364.88
2022-10-04T03:20:50.920Z,98360.84
2022-10-04T03:23:20.816Z,98353.28
2022-10-04T03:25:53.105Z,98350.84
2022-10-04T03:28:21.896Z,98344.09
2022-10-04T03:30:50.201Z,98340.06
2022-10-04T03:33:20.288Z,98343.28
2022-10-04T03:35:51.423Z,98344.91
2022-10-04T03:38:19.934Z,98344.38
2022-10-04T03:40:52.376Z,98336.03
2022-10-04T03:43:23.268Z,98337.88
2022-10-04T03:45:50.950Z,98353.28
2022-10-04T03:48:27.364Z,98347.06
2022-10-04T03:50:55.003Z,98364.88
2022-10-04T03:53:29.460Z,98362.19
2022-10-04T03:56:02.121Z,98361.09
2022-10-04T03:58:33.346Z,98364.59
2022-10-04T04:01:16.142Z,98359.75
2022-10-04T04:03:53.458Z,98352.72
2022-10-04T04:06:22.197Z,98351.41
2022-10-04T04:08:53.963Z,98355.16
2022-10-04T04:11:24.455Z,98360.56
2022-10-04T04:14:00.675Z,98352.72
2022-10-04T04:16:28.225Z,98351.63
2022-10-04T04:18:59.813Z,98353.81
2022-10-04T04:21:27.804Z,98358.66
2022-10-04T04:23:58.572Z,98348.41
2022-10-04T04:26:32.523Z,98360.25
2022-10-04T04:29:07.031Z,98357.59
2022-10-04T04:31:38.137Z,98357.31
2022-10-04T04:34:15.443Z,98361.63
2022-10-04T04:36:42.656Z,98353.56
2022-10-04T04:39:16.069Z,98333.56
2022-10-04T04:41:48.128Z,98341.13
2022-10-04T04:44:19.349Z,98352.72
2022-10-04T04:46:47.869Z,98352.72
2022-10-04T04:49:17.273Z,98354.03
2022-10-04T04:51:49.296Z,98351.91
2022-10-04T04:54:19.914Z,98344.09
2022-10-04T04:56:51.854Z,98344.09
2022-10-04T04:59:22.209Z,98338.69
2022-10-04T05:01:49.876Z,98346.53
2022-10-04T05:04:20.089Z,98350.53
2022-10-04T05:06:49.444Z,98349.47
2022-10-04T05:09:24.173Z,98347.63
2022-10-04T05:11:53.588Z,98358.41
2022-10-04T05:14:22.180Z,98368.91
2022-10-04T05:16:51.482Z,98371.88
2022-10-04T05:19:21.139Z,98361.63
2022-10-04T05:21:51.317Z,98363.50
2022-10-04T05:24:23.802Z,98355.69
2022-10-04T05:26:53.954Z,98355.69
2022-10-04T05:29:26.100Z,98363.25
2022-10-04T05:32:02.898Z,98350.03
2022-10-04T05:34:36.036Z,98338.69
2022-10-04T05:37:26.463Z,98340.56
2022-10-04T05:40:04.728Z,98344.63
2022-10-04T05:42:38.773Z,98343.81
2022-10-04T05:45:17.292Z,98350.53
2022-10-04T05:47:46.743Z,98352.69
2022-10-04T05:50:20.284Z,98365.13
2022-10-04T05:52:50.166Z,98383.19
2022-10-04T05:55:23.718Z,98374.81
2022-10-04T05:58:14.815Z,98364.03
2022-10-04T06:00:50.903Z,98366.72
2022-10-04T06:03:33.479Z,98364.84
2022-10-04T06:06:05.250Z,98362.69
2022-10-04T06:08:48.321Z,98368.91
2022-10-04T06:11:28.031Z,98391.00
2022-10-04T06:14:18.749Z,98404.50
2022-10-04T06:17:14.915Z,98387.50
2022-10-04T06:20:20.056Z,98360.53
2022-10-04T06:22:48.059Z,98359.72
2022-10-04T06:25:21.325Z,98351.34
2022-10-04T06:27:54.558Z,98364.28
2022-10-04T06:30:21.938Z,98382.63
2022-10-04T06:33:05.108Z,98367.53
2022-10-04T06:36:10.292Z,98367.00
2022-10-04T06:39:04.564Z,98370.22
2022-10-04T06:41:58.285Z,98381.53
2022-10-04T06:45:09.931Z,98386.13
2022-10-04T06:47:57.673Z,98407.75
2022-10-04T06:50:33.853Z,98403.69
2022-10-04T06:53:17.455Z,98392.34
2022-10-04T06:56:08.359Z,98400.19
2022-10-04T06:58:58.243Z,98392.34
2022-10-04T07:01:29.251Z,98402.06
2022-10-04T07:04:04.999Z,98405.59
2022-10-04T07:06:41.012Z,98411.28
2022-10-04T07:09:18.669Z,98405.31
2022-10-04T07:11:50.924Z,98400.75
2022-10-04T07:14:22.188Z,98411.53
2022-10-04T07:16:52.913Z,98405.59
2022-10-04T07:19:33.647Z,98414.75
2022-10-04T07:22:12.380Z,98419.06
2022-10-04T07:24:58.682Z,98413.94
2022-10-04T07:27:31.919Z,98408.00
2022-10-04T07:30:02.449Z,98398.56
2022-10-04T07:32:34.760Z,98382.09
2022-10-04T07:35:12.553Z,98375.09
2022-10-04T07:37:52.283Z,98383.44
2022-10-04T07:40:24.805Z,98388.84
2022-10-04T07:42:57.212Z,98397.97
2022-10-04T07:45:30.152Z,98404.75
2022-10-04T07:48:04.365Z,98409.91
2022-10-04T07:50:35.701Z,98399.09
2022-10-04T07:53:09.612Z,98405.56
2022-10-04T07:55:46.436Z,98402.34
2022-10-04T07:58:24.961Z,98401.25
2022-10-04T08:00:56.715Z,98403.69
2022-10-04T08:03:45.342Z,98406.38
2022-10-04T08:06:18.231Z,98410.69
2022-10-04T08:09:02.017Z,98401.50
2022-10-04T08:11:42.152Z,98410.97
2022-10-04T08:14:24.231Z,98423.63
2022-10-04T08:17:06.501Z,98420.66
2022-10-04T08:19:44.413Z,98421.47
2022-10-04T08:22:27.480Z,98423.91
2022-10-04T08:25:04.791Z,98419.31
2022-10-04T08:27:51.991Z,98424.44
2022-10-04T08:30:19.498Z,98424.97
2022-10-04T08:33:00.761Z,98429.56
2022-10-04T08:35:38.764Z,98434.97
2022-10-04T08:38:23.822Z,98430.38
2022-10-04T08:41:28.170Z,98429.88
2022-10-04T08:44:29.366Z,98430.94
2022-10-04T08:47:32.594Z,98427.97
2022-10-04T08:50:44.297Z,98427.44
2022-10-04T08:53:53.215Z,98424.19
2022-10-04T08:56:38.797Z,98425.25
2022-10-04T08:59:32.479Z,98437.41
2022-10-04T09:02:25.124Z,98432.53
2022-10-04T09:05:08.193Z,98425.25
2022-10-04T09:08:29.548Z,98420.09
2022-10-04T09:11:15.569Z,98434.94
2022-10-04T09:13:58.941Z,98426.56
2022-10-04T09:16:41.001Z,98429.84
2022-10-04T09:19:22.827Z,98422.03
2022-10-04T09:22:14.824Z,98429.28
2022-10-04T09:25:17.450Z,98423.91
2022-10-04T09:28:09.085Z,98423.91
2022-10-04T09:30:52.293Z,98434.97
2022-10-04T09:33:51.542Z,98435.25
2022-10-04T09:36:46.548Z,98433.09
2022-10-04T09:39:41.431Z,98433.38
2022-10-04T09:42:32.339Z,98435.22
2022-10-04T09:45:20.330Z,98439.56
2022-10-04T09:48:08.584Z,98430.66
2022-10-04T09:51:08.454Z,98431.72
2022-10-04T09:53:44.171Z,98430.94
2022-10-04T09:56:32.007Z,98430.94
2022-10-04T09:59:22.383Z,98434.44
2022-10-04T10:02:18.526Z,98440.38
2022-10-04T10:04:52.045Z,98437.16
2022-10-04T10:07:35.012Z,98447.16
2022-10-04T10:10:15.591Z,98438.28
2022-10-04T10:13:12.317Z,98445.28
2022-10-04T10:15:49.535Z,98446.09
2022-10-04T10:18:25.526Z,98444.47
2022-10-04T10:21:10.341Z,98440.16
2022-10-04T10:23:51.419Z,98441.81
2022-10-04T10:26:49.890Z,98438.31
2022-10-04T10:29:42.140Z,98440.47
2022-10-04T10:32:36.094Z,98437.88
2022-10-04T10:35:19.513Z,98433.56
2022-10-04T10:38:04.620Z,98424.13
2022-10-04T10:40:40.595Z,98423.03
2022-10-04T10:43:27.689Z,98427.34
2022-10-04T10:46:17.073Z,98432.50
2022-10-04T10:49:18.863Z,98431.72
2022-10-04T10:52:17.298Z,98433.31
2022-10-04T10:55:11.339Z,98425.47
2022-10-04T10:58:21.648Z,98424.66
2022-10-04T11:00:59.870Z,98431.97
2022-10-04T11:03:57.713Z,98429.22
2022-10-04T11:07:04.082Z,98421.91
2022-10-04T11:09:49.065Z,98428.97
2022-10-04T11:12:37.595Z,98427.31
2022-10-04T11:15:47.216Z,98430.81
2022-10-04T11:18:50.672Z,98427.06
2022-10-04T11:22:05.757Z,98424.63
2022-10-04T11:25:11.870Z,98426.53
2022-10-04T11:27:49.727Z,98414.91
2022-10-04T11:30:21.581Z,98417.88
2022-10-04T11:33:40.962Z,98410.03
2022-10-04T11:36:28.224Z,98409.22
2022-10-04T11:39:05.514Z,98406.25
2022-10-04T11:41:46.255Z,98397.66
2022-10-04T11:44:44.012Z,98392.78
2022-10-04T11:47:26.352Z,98388.97
2022-10-04T11:50:15.992Z,98397.09
2022-10-04T11:53:21.189Z,98386.56
2022-10-04T11:56:07.602Z,98389.28
2022-10-04T11:59:02.285Z,98386.00
2022-10-04T12:01:45.240Z,98385.19
2022-10-04T12:04:57.252Z,98382.75
2022-10-04T12:07:42.404Z,98372.75
2022-10-04T12:10:24.049Z,98367.63
2022-10-04T12:13:24.450Z,98364.63
2022-10-04T12:16:13.574Z,98374.13
2022-10-04T12:19:05.736Z,98370.31
2022-10-04T12:21:54.519Z,98377.63
2022-10-04T12:24:43.897Z,98368.19
2022-10-04T12:27:27.728Z,98355.19
2022-10-04T12:30:24.121Z,98362.25
2022-10-04T12:33:04.671Z,98365.47
2022-10-04T12:35:52.214Z,98356.56
2022-10-04T12:38:36.576Z,98349.25
2022-10-04T12:41:16.676Z,98344.91
2022-10-04T12:43:53.990Z,98342.47
2022-10-04T12:46:32.240Z,98340.59
2022-10-04T12:49:12.688Z,98338.41
2022-10-04T12:51:52.555Z,98345.97
2022-10-04T12:54:32.185Z,98340.25
2022-10-04T12:57:13.762Z,98340.03
2022-10-04T12:59:48.689Z,98327.56
2022-10-04T13:02:35.202Z,98325.94
2022-10-04T13:05:12.848Z,98322.13
2022-10-04T13:08:03.857Z,98330.50
2022-10-04T13:10:44.229Z,98329.13
2022-10-04T13:13:48.749Z,98331.56
2022-10-04T13:19:18.421Z,98331.81
2022-10-04T13:22:01.556Z,98320.22
2022-10-04T13:24:38.487Z,98321.28
2022-10-04T13:27:12.769Z,98330.50
2022-10-04T13:29:51.787Z,98329.13
2022-10-04T13:32:25.046Z,98320.81
2022-10-04T13:35:01.221Z,98313.41
2022-10-04T13:37:36.290Z,98313.31
2022-10-04T13:40:28.651Z,98313.19
2022-10-04T13:43:35.263Z,98313.31
2022-10-04T13:46:17.032Z,98313.53
2022-10-04T13:48:56.745Z,98321.31
2022-10-04T13:51:39.185Z,98317.78
2022-10-04T13:54:18.484Z,98315.41
2022-10-04T13:57:00.382Z,98318.97
2022-10-04T13:59:36.970Z,98321.97
2022-10-04T14:02:42.737Z,98318.22
2022-10-04T14:05:53.722Z,98327.94
2022-10-04T14:08:46.040Z,98321.47
2022-10-04T14:11:51.144Z,98326.66
2022-10-04T14:14:41.607Z,98328.78
2022-10-04T14:17:52.924Z,98324.72
2022-10-04T14:20:48.608Z,98327.44
2022-10-04T14:23:39.089Z,98323.09
2022-10-04T14:26:41.158Z,98321.47
2022-10-04T14:29:39.737Z,98326.06
2022-10-04T14:32:34.568Z,98322.00
2022-10-04T14:35:08.373Z,98322.25
2022-10-04T14:38:04.045Z,98319.28
2022-10-04T14:40:47.707Z,98314.94
2022-10-04T14:43:48.962Z,98323.03
2022-10-04T14:46:23.857Z,98327.94
2022-10-04T14:49:06.954Z,98328.97
2022-10-04T14:52:07.584Z,98330.66
2022-10-04T14:54:49.781Z,98329.81
2022-10-04T14:57:36.541Z,98329.81
2022-10-04T15:00:17.180Z,98328.75
2022-10-04T15:03:13.297Z,98324.13
2022-10-04T15:06:00.170Z,98328.44
2022-10-04T15:09:01.253Z,98316.03
2022-10-04T15:12:07.992Z,98312.81
2022-10-04T15:14:40.978Z,98316.03
2022-10-04T15:17:24.629Z,98305.22
2022-10-04T15:20:05.650Z,98302.56
2022-10-04T15:22:41.077Z,98300.66
2022-10-04T15:25:40.070Z,98303.34
2022-10-04T15:28:27.381Z,98302.03
2022-10-04T15:31:02.056Z,98296.34
2022-10-04T15:33:40.917Z,98293.13
2022-10-04T15:36:30.365Z,98287.19
2022-10-04T15:39:03.216Z,98278.81
2022-10-04T15:41:39.121Z,98281.50
2022-10-04T15:44:31.873Z,98285.28
2022-10-04T15:47:12.471Z,98282.31
2022-10-04T15:50:00.370Z,98280.16
2022-10-04T15:52:46.514Z,98284.22
2022-10-04T15:55:21.400Z,98280.69
2022-10-04T15:58:23.619Z,98275.88
2022-10-04T16:01:12.970Z,98268.56
2022-10-04T16:03:47.585Z,98271.25
2022-10-04T16:06:23.282Z,98282.88
2022-10-04T16:09:17.459Z,98272.59
2022-10-04T16:11:53.443Z,98272.06
2022-10-04T16:14:48.236Z,98273.16
2022-10-04T16:17:52.199Z,98274.22
2022-10-04T16:21:04.736Z,98273.69
2022-10-04T16:23:35.365Z,98272.91
2022-10-04T16:26:05.490Z,98272.63
2022-10-04T16:29:00.346Z,98269.13
2022-10-04T16:31:42.016Z,98273.72
2022-10-04T16:34:22.913Z,98273.19
2022-10-04T16:36:56.589Z,98259.16
2022-10-04T16:39:38.482Z,98273.97
2022-10-04T16:42:15.436Z,98278.03
2022-10-04T16:44:50.634Z,98271.53
2022-10-04T16:47:22.794Z,98270.22
2022-10-04T16:49:52.978Z,98274.78
2022-10-04T16:52:49.609Z,98273.44
2022-10-04T16:55:45.732Z,98274.00
2022-10-04T16:58:55.469Z,98273.19
2022-10-04T17:02:17.908Z,98279.66
2022-10-04T17:05:05.956Z,98272.63
2022-10-04T17:07:41.295Z,98281.25
2022-10-04T17:10:28.097Z,98286.66
2022-10-04T17:13:06.761Z,98283.44
2022-10-04T17:15:47.027Z,98292.88
2022-10-04T17:18:20.102Z,98288.53
2022-10-04T17:20:54.695Z,98287.50
2022-10-04T17:23:50.449Z,98288.03
2022-10-04T17:26:40.199Z,98290.19
2022-10-04T17:29:29.227Z,98295.59
2022-10-04T17:32:03.325Z,98297.19
2022-10-04T17:34:44.826Z,98300.69
2022-10-04T17:37:22.221Z,98299.63
2022-10-04T17:39:59.117Z,98303.13
2022-10-04T17:42:40.050Z,98300.16
2022-10-04T17:45:26.956Z,98298.81
2022-10-04T17:48:00.247Z,98300.16
2022-10-04T17:50:33.409Z,98302.31
2022-10-04T17:53:09.131Z,98302.31
2022-10-04T17:55:44.999Z,98303.41
2022-10-04T17:58:16.189Z,98296.38
2022-10-04T18:00:55.163Z,98300.41
2022-10-04T18:03:31.823Z,98303.38
2022-10-04T18:06:04.343Z,98302.84
2022-10-04T18:08:45.075Z,98307.44
2022-10-04T18:11:20.867Z,98300.41
2022-10-04T18:13:55.937Z,98309.88
2022-10-04T18:16:28.891Z,98297.19
2022-10-04T18:18:58.125Z,98306.09
2022-10-04T18:21:27.928Z,98312.03
2022-10-04T18:23:58.037Z,98300.72
2022-10-04T18:26:29.157Z,98302.84
2022-10-04T18:28:58.755Z,98306.91
2022-10-04T18:31:31.382Z,98309.88
2022-10-04T18:34:03.242Z,98295.31
2022-10-04T18:36:46.099Z,98296.09
2022-10-04T18:39:19.480Z,98294.22
2022-10-04T18:41:55.864Z,98295.84
2022-10-04T18:44:26.985Z,98299.63
2022-10-04T18:46:58.381Z,98309.31
2022-10-04T18:49:29.529Z,98306.34
2022-10-04T18:52:21.317Z,98305.53
2022-10-04T18:54:59.489Z,98305.25
2022-10-04T18:57:32.381Z,98305.00
2022-10-04T19:00:08.837Z,98314.16
2022-10-04T19:02:47.226Z,98310.66
2022-10-04T19:05:20.118Z,98307.66
2022-10-04T19:07:54.370Z,98306.31
2022-10-04T19:10:27.710Z,98302.81
2022-10-04T19:13:19.176Z,98303.63
2022-10-04T19:16:15.867Z,98317.41
2022-10-04T19:18:56.583Z,98323.38
2022-10-04T19:21:30.590Z,98321.19
2022-10-04T19:24:15.223Z,98324.44
2022-10-04T19:26:46.592Z,98322.00
2022-10-04T19:29:25.698Z,98321.19
2022-10-04T19:31:58.318Z,98326.03
2022-10-04T19:34:40.384Z,98329.28
2022-10-04T19:37:14.141Z,98332.25
2022-10-04T19:39:51.478Z,98341.16
2022-10-04T19:42:28.925Z,98336.59
2022-10-04T19:45:14.385Z,98329.28
2022-10-04T19:47:47.804Z,98331.19
2022-10-04T19:50:21.367Z,98329.53
2022-10-04T19:52:51.840Z,98323.88
2022-10-04T19:55:24.957Z,98321.97
2022-10-04T19:58:01.419Z,98317.94
2022-10-04T20:00:28.543Z,98320.91
2022-10-04T20:02:55.665Z,98331.19
2022-10-04T20:05:24.390Z,98336.59
2022-10-04T20:07:55.727Z,98329.81
2022-10-04T20:10:29.938Z,98334.41
2022-10-04T20:13:22.432Z,98331.47
2022-10-04T20:15:54.911Z,98331.19
2022-10-04T20:19:04.410Z,98325.78
2022-10-04T20:21:32.959Z,98329.31
2022-10-04T20:24:00.227Z,98330.66
2022-10-04T20:26:50.709Z,98330.91
2022-10-04T20:29:59.625Z,98343.09
2022-10-04T20:32:54.217Z,98344.69
2022-10-04T20:35:39.595Z,98350.91
2022-10-04T20:38:31.816Z,98350.09
2022-10-04T20:40:59.823Z,98354.94
2022-10-04T20:43:27.105Z,98357.38
2022-10-04T20:45:54.378Z,98353.06
2022-10-04T20:48:23.818Z,98354.94
2022-10-04T20:50:51.576Z,98356.03
2022-10-04T20:53:23.174Z,98363.34
2022-10-04T20:55:52.000Z,98363.34
2022-10-04T20:58:27.338Z,98369.53
2022-10-04T21:00:56.227Z,98374.94
2022-10-04T21:03:24.265Z,98373.34
2022-10-04T21:06:03.482Z,98382.25
2022-10-04T21:08:32.584Z,98387.66
2022-10-04T21:11:09.029Z,98383.34
2022-10-04T21:13:56.500Z,98377.41
2022-10-04T21:16:34.526Z,98382.78
2022-10-04T21:19:30.091Z,98380.06
2022-10-04T21:21:58.288Z,98383.31
2022-10-04T21:24:34.786Z,98390.34
2022-10-04T21:27:02.212Z,98386.28
2022-10-04T21:29:29.392Z,98394.97
2022-10-04T21:31:56.592Z,98385.22
2022-10-04T21:34:48.279Z,98393.88
2022-10-04T21:37:11.776Z,98389.53
2022-10-04T21:39:40.281Z,98391.72
2022-10-04T21:42:07.421Z,98384.97
2022-10-04T21:44:34.511Z,98378.47
2022-10-04T21:47:01.893Z,98382.28
2022-10-04T21:49:29.033Z,98370.63
2022-10-04T21:51:56.142Z,98372.25
2022-10-04T21:54:23.261Z,98382.53
2022-10-04T21:56:51.745Z,98386.31
2022-10-04T21:59:18.857Z,98387.13
2022-10-04T22:01:46.441Z,98385.22
2022-10-04T22:04:13.775Z,98381.19
2022-10-04T22:06:40.911Z,98386.84
2022-10-04T22:09:08.841Z,98384.69
2022-10-04T22:11:36.356Z,98386.03
2022-10-04T22:14:04.914Z,98399.53
2022-10-04T22:16:32.104Z,98394.16
2022-10-04T22:18:59.269Z,98393.34
2022-10-04T22:21:26.450Z,98401.97
2022-10-04T22:23:53.688Z,98407.66
2022-10-04T22:26:21.869Z,98408.44
2022-10-04T22:28:51.619Z,98404.16
2022-10-04T22:31:21.857Z,98410.09
2022-10-04T22:33:50.017Z,98407.09
2022-10-04T22:36:20.480Z,98399.81
2022-10-04T22:38:51.410Z,98389.53
2022-10-04T22:41:19.489Z,98392.22
2022-10-04T22:43:47.037Z,98391.44
2022-10-04T22:46:16.516Z,98388.44
2022-10-04T22:48:48.113Z,98387.91
2022-10-04T22:51:15.389Z,98383.34
2022-10-04T22:53:45.324Z,98389.81
2022-10-04T22:56:13.612Z,98378.19
2022-10-04T22:58:40.995Z,98392.78
2022-10-04T23:01:12.722Z,98399.81
2022-10-04T23:03:39.848Z,98400.06
2022-10-04T23:06:08.401Z,98398.97
2022-10-04T23:08:35.646Z,98398.44
2022-10-04T23:11:02.737Z,98401.66
2022-10-04T23:13:29.860Z,98406.28
2022-10-04T23:15:59.651Z,98406.00
2022-10-04T23:18:28.304Z,98405.47
2022-10-04T23:20:57.347Z,98404.38
2022-10-04T23:23:27.414Z,98398.16
2022-10-04T23:25:54.883Z,98400.31
2022-10-04T23:28:22.547Z,98402.78
2022-10-04T23:31:00.487Z,98404.13
2022-10-04T23:33:27.631Z,98394.94
2022-10-04T23:35:54.845Z,98390.34
2022-10-04T23:38:23.843Z,98391.16
2022-10-04T23:40:52.344Z,98385.19
2022-10-04T23:43:22.699Z,98388.16
2022-10-04T23:45:50.005Z,98386.78
2022-10-04T23:48:22.644Z,98379.78
2022-10-04T23:50:51.623Z,98372.75
2022-10-04T23:53:23.684Z,98365.44
2022-10-04T23:55:53.783Z,98360.88
2022-10-04T23:58:23.531Z,98365.75
